createdAt,value
2023-04-27T00:00:14.709Z,101954.94
2023-04-27T00:01:46.752Z,101954.13
2023-04-27T00:03:18.964Z,101949.69
2023-04-27T00:04:52.016Z,101959.13
2023-04-27T00:06:24.170Z,101966.16
2023-04-27T00:07:56.107Z,101963.38
2023-04-27T00:09:28.001Z,101963.41
2023-04-27T00:11:00.802Z,101955.56
2023-04-27T00:12:32.587Z,101969.41
2023-04-27T00:14:04.507Z,101970.16
2023-04-27T00:15:36.406Z,101967.44
2023-04-27T00:17:08.268Z,101970.88
2023-04-27T00:18:40.249Z,101977.72
2023-04-27T00:20:12.577Z,101978.47
2023-04-27T00:21:44.534Z,101977.53
2023-04-27T00:23:16.727Z,101975.81
2023-04-27T00:24:48.631Z,101976.56
2023-04-27T00:26:21.658Z,101976.50
2023-04-27T00:27:55.737Z,101981.69
2023-04-27T00:29:27.692Z,101972.88
2023-04-27T00:30:59.600Z,101972.88
2023-04-27T00:32:32.648Z,101961.53
2023-04-27T00:34:04.617Z,101960.56
2023-04-27T00:35:36.590Z,101961.41
2023-04-27T00:37:08.545Z,101968.28
2023-04-27T00:38:40.417Z,101973.38
2023-04-27T00:40:12.633Z,101961.19
2023-04-27T00:41:44.592Z,101970.75
2023-04-27T00:43:16.604Z,101966.38
2023-04-27T00:44:48.531Z,101966.28
2023-04-27T00:46:20.561Z,101969.78
2023-04-27T00:47:52.599Z,101960.13
2023-04-27T00:49:24.583Z,101968.00
2023-04-27T00:50:56.508Z,101967.88
2023-04-27T00:52:28.460Z,101967.88
2023-04-27T00:54:01.284Z,101962.66
2023-04-27T00:55:33.133Z,101960.00
2023-04-27T00:57:05.169Z,101972.16
2023-04-27T00:58:37.468Z,101974.72
2023-04-27T01:00:11.215Z,101966.88
2023-04-27T01:01:43.267Z,101976.47
2023-04-27T01:03:15.446Z,101971.09
2023-04-27T01:04:54.222Z,101976.34
2023-04-27T01:06:26.127Z,101978.88
2023-04-27T01:07:58.053Z,101968.41
2023-04-27T01:09:31.311Z,101976.19
2023-04-27T01:11:03.781Z,101977.00
2023-04-27T01:12:36.629Z,101977.78
2023-04-27T01:14:10.175Z,101964.66
2023-04-27T01:15:42.050Z,101965.63
2023-04-27T01:17:14.840Z,101961.22
2023-04-27T01:18:47.324Z,101974.16
2023-04-27T01:20:20.609Z,101963.78
2023-04-27T01:21:52.562Z,101969.66
2023-04-27T01:23:24.499Z,101976.47
2023-04-27T01:24:56.525Z,101977.41
2023-04-27T01:26:28.655Z,101976.53
2023-04-27T01:28:00.647Z,101975.66
2023-04-27T01:29:32.869Z,101976.53
2023-04-27T01:31:04.836Z,101982.66
2023-04-27T01:32:39.791Z,101976.63
2023-04-27T01:34:12.098Z,101982.66
2023-04-27T01:35:43.999Z,101981.81
2023-04-27T01:37:16.157Z,101979.13
2023-04-27T01:38:48.768Z,101981.63
2023-04-27T01:40:20.810Z,101982.34
2023-04-27T01:41:52.795Z,101973.66
2023-04-27T01:43:24.806Z,101977.00
2023-04-27T01:44:56.938Z,101989.97
2023-04-27T01:46:28.951Z,101978.63
2023-04-27T01:48:00.985Z,101986.41
2023-04-27T01:49:32.892Z,101983.78
2023-04-27T01:51:05.124Z,101985.44
2023-04-27T01:52:38.138Z,101978.56
2023-04-27T01:54:10.107Z,101980.25
2023-04-27T01:55:42.264Z,101978.38
2023-04-27T01:57:14.845Z,101980.19
2023-04-27T01:58:46.950Z,101981.81
2023-04-27T02:00:19.320Z,101978.34
2023-04-27T02:01:55.169Z,101982.75
2023-04-27T02:03:27.300Z,101979.28
2023-04-27T02:04:59.396Z,101975.75
2023-04-27T02:06:31.686Z,101973.00
2023-04-27T02:08:03.993Z,101972.22
2023-04-27T02:09:35.994Z,101988.66
2023-04-27T02:11:07.904Z,101981.63
2023-04-27T02:12:39.997Z,101982.50
2023-04-27T02:14:13.072Z,101980.75
2023-04-27T02:15:45.053Z,101979.06
2023-04-27T02:17:17.006Z,101973.94
2023-04-27T02:18:49.447Z,101984.22
2023-04-27T02:20:21.765Z,101983.34
2023-04-27T02:21:53.627Z,101985.06
2023-04-27T02:23:25.582Z,101985.94
2023-04-27T02:24:57.456Z,101984.16
2023-04-27T02:26:32.659Z,101975.47
2023-04-27T02:28:04.891Z,101970.31
2023-04-27T02:29:39.128Z,101969.38
2023-04-27T02:31:11.885Z,101968.41
2023-04-27T02:32:44.523Z,101966.66
2023-04-27T02:34:17.076Z,101967.53
2023-04-27T02:35:48.979Z,101966.53
2023-04-27T02:37:21.156Z,101968.28
2023-04-27T02:38:53.075Z,101962.94
2023-04-27T02:40:25.610Z,101962.13
2023-04-27T02:41:57.495Z,101963.81
2023-04-27T02:43:29.447Z,101962.13
2023-04-27T02:45:01.562Z,101963.78
2023-04-27T02:46:33.494Z,101960.31
2023-04-27T02:48:05.694Z,101964.56
2023-04-27T02:49:39.284Z,101954.09
2023-04-27T02:51:11.261Z,101955.00
2023-04-27T02:52:43.163Z,101945.31
2023-04-27T02:54:15.073Z,101948.06
2023-04-27T02:55:50.182Z,101948.03
2023-04-27T02:57:22.236Z,101951.44
2023-04-27T02:58:54.148Z,101955.75
2023-04-27T03:00:26.413Z,101953.94
2023-04-27T03:01:58.313Z,101956.59
2023-04-27T03:03:30.493Z,101950.56
2023-04-27T03:05:02.614Z,101951.44
2023-04-27T03:06:34.485Z,101956.59
2023-04-27T03:08:06.446Z,101947.59
2023-04-27T03:09:38.465Z,101962.38
2023-04-27T03:11:10.387Z,101960.59
2023-04-27T03:12:42.338Z,101962.28
2023-04-27T03:14:14.198Z,101956.97
2023-04-27T03:15:46.567Z,101963.06
2023-04-27T03:17:18.522Z,101962.81
2023-04-27T03:18:52.943Z,101963.72
2023-04-27T03:20:24.936Z,101960.22
2023-04-27T03:21:58.878Z,101969.75
2023-04-27T03:23:30.868Z,101956.78
2023-04-27T03:25:03.842Z,101961.97
2023-04-27T03:26:35.722Z,101959.38
2023-04-27T03:28:09.189Z,101961.00
2023-04-27T03:29:41.049Z,101954.81
2023-04-27T03:31:14.864Z,101970.38
2023-04-27T03:32:47.856Z,101955.66
2023-04-27T03:34:21.239Z,101959.97
2023-04-27T03:35:57.525Z,101958.03
2023-04-27T03:37:30.120Z,101959.81
2023-04-27T03:39:02.452Z,101951.09
2023-04-27T03:40:34.545Z,101958.88
2023-04-27T03:42:06.499Z,101961.47
2023-04-27T03:43:38.417Z,101958.81
2023-04-27T03:45:12.544Z,101959.59
2023-04-27T03:46:44.860Z,101968.31
2023-04-27T03:48:17.557Z,101967.38
2023-04-27T03:49:50.614Z,101975.03
2023-04-27T03:51:22.570Z,101968.81
2023-04-27T03:52:54.456Z,101964.47
2023-04-27T03:54:26.337Z,101979.19
2023-04-27T03:55:58.252Z,101978.19
2023-04-27T03:57:31.943Z,101989.28
2023-04-27T03:59:06.718Z,101983.91
2023-04-27T04:00:41.700Z,101982.25
2023-04-27T04:02:13.774Z,101987.34
2023-04-27T04:03:48.510Z,101987.28
2023-04-27T04:05:20.849Z,101992.47
2023-04-27T04:06:53.893Z,101993.28
2023-04-27T04:08:26.266Z,101985.50
2023-04-27T04:09:58.136Z,101982.81
2023-04-27T04:11:30.084Z,101983.69
2023-04-27T04:13:04.114Z,101982.81
2023-04-27T04:14:36.118Z,101975.00
2023-04-27T04:16:09.167Z,101976.69
2023-04-27T04:17:41.275Z,101971.34
2023-04-27T04:19:13.686Z,101986.94
2023-04-27T04:20:46.542Z,101997.31
2023-04-27T04:22:18.810Z,101982.53
2023-04-27T04:23:50.997Z,101999.84
2023-04-27T04:25:26.369Z,101995.50
2023-04-27T04:26:58.928Z,101991.91
2023-04-27T04:28:31.265Z,101995.44
2023-04-27T04:30:05.447Z,101997.22
2023-04-27T04:31:38.389Z,102003.28
2023-04-27T04:33:10.367Z,101995.50
2023-04-27T04:34:42.669Z,101997.31
2023-04-27T04:36:15.388Z,101999.84
2023-04-27T04:37:47.368Z,102000.06
2023-04-27T04:39:23.175Z,101994.88
2023-04-27T04:40:55.133Z,101998.41
2023-04-27T04:42:27.759Z,101996.72
2023-04-27T04:43:59.898Z,101995.09
2023-04-27T04:45:32.391Z,102001.72
2023-04-27T04:47:05.031Z,102009.59
2023-04-27T04:48:37.094Z,102013.03
2023-04-27T04:50:10.470Z,102014.78
2023-04-27T04:51:43.864Z,102013.84
2023-04-27T04:53:17.044Z,102006.84
2023-04-27T04:54:52.748Z,102013.84
2023-04-27T04:56:26.484Z,102017.28
2023-04-27T04:57:59.993Z,102014.72
2023-04-27T04:59:34.288Z,102018.22
2023-04-27T05:01:06.967Z,102019.03
2023-04-27T05:02:39.259Z,102016.56
2023-04-27T05:04:12.238Z,102013.84
2023-04-27T05:05:44.266Z,102017.44
2023-04-27T05:07:21.491Z,102016.59
2023-04-27T05:08:56.191Z,102021.91
2023-04-27T05:10:28.079Z,102015.84
2023-04-27T05:12:02.066Z,102017.72
2023-04-27T05:13:34.027Z,102020.31
2023-04-27T05:15:06.554Z,102025.63
2023-04-27T05:16:38.518Z,102025.63
2023-04-27T05:18:10.631Z,102013.59
2023-04-27T05:19:42.509Z,102024.06
2023-04-27T05:21:15.856Z,102023.34
2023-04-27T05:22:48.056Z,102022.47
2023-04-27T05:24:20.006Z,102025.13
2023-04-27T05:25:52.255Z,102026.88
2023-04-27T05:27:24.542Z,102024.34
2023-04-27T05:28:56.458Z,102027.97
2023-04-27T05:30:28.363Z,102040.22
2023-04-27T05:32:00.481Z,102033.38
2023-04-27T05:33:32.530Z,102026.47
2023-04-27T05:35:05.662Z,102022.22
2023-04-27T05:36:37.591Z,102032.66
2023-04-27T05:38:09.517Z,102029.19
2023-04-27T05:39:42.559Z,102030.94
2023-04-27T05:41:14.492Z,102030.16
2023-04-27T05:42:47.089Z,102028.28
2023-04-27T05:44:19.428Z,102035.09
2023-04-27T05:45:51.845Z,102037.78
2023-04-27T05:47:23.845Z,102042.97
2023-04-27T05:48:55.994Z,102040.44
2023-04-27T05:50:27.916Z,102032.59
2023-04-27T05:51:59.829Z,102029.19
2023-04-27T05:53:34.775Z,102038.88
2023-04-27T05:55:08.343Z,102039.84
2023-04-27T05:56:40.410Z,102036.44
2023-04-27T05:58:12.402Z,102038.31
2023-04-27T05:59:44.245Z,102044.47
2023-04-27T06:01:16.452Z,102037.47
2023-04-27T06:02:48.955Z,102048.78
2023-04-27T06:04:21.697Z,102048.09
2023-04-27T06:05:59.080Z,102037.72
2023-04-27T06:07:31.585Z,102043.09
2023-04-27T06:09:03.882Z,102049.28
2023-04-27T06:10:36.132Z,102043.25
2023-04-27T06:12:09.057Z,102040.72
2023-04-27T06:13:40.861Z,102046.25
2023-04-27T06:15:12.785Z,102040.28
2023-04-27T06:16:44.750Z,102037.72
2023-04-27T06:18:16.798Z,102035.13
2023-04-27T06:19:48.855Z,102042.28
2023-04-27T06:21:20.890Z,102035.47
2023-04-27T06:22:52.862Z,102043.38
2023-04-27T06:24:24.834Z,102037.44
2023-04-27T06:25:56.976Z,102038.41
2023-04-27T06:27:28.920Z,102038.41
2023-04-27T06:29:08.217Z,102042.16
2023-04-27T06:30:40.207Z,102034.47
2023-04-27T06:32:12.380Z,102043.38
2023-04-27T06:33:44.294Z,102033.94
2023-04-27T06:35:16.946Z,102040.28
2023-04-27T06:36:48.952Z,102035.22
2023-04-27T06:38:20.862Z,102046.63
2023-04-27T06:39:52.895Z,102041.56
2023-04-27T06:41:26.376Z,102040.78
2023-04-27T06:42:58.343Z,102044.53
2023-04-27T06:44:30.565Z,102041.38
2023-04-27T06:46:03.001Z,102033.75
2023-04-27T06:47:35.141Z,102044.44
2023-04-27T06:49:07.132Z,102046.34
2023-04-27T06:50:39.059Z,102038.75
2023-04-27T06:52:11.513Z,102032.00
2023-04-27T06:53:43.542Z,102036.53
2023-04-27T06:55:15.875Z,102034.13
2023-04-27T06:56:50.590Z,102032.63
2023-04-27T06:58:22.521Z,102038.22
2023-04-27T07:01:54.269Z,102030.63
2023-04-27T07:03:27.003Z,102028.13
2023-04-27T07:04:59.301Z,102025.78
2023-04-27T07:06:31.932Z,102028.63
2023-04-27T07:08:07.220Z,102022.81
2023-04-27T07:09:40.614Z,102020.44
2023-04-27T07:11:13.017Z,102024.13
2023-04-27T07:12:44.970Z,102025.06
2023-04-27T07:14:17.095Z,102022.44
2023-04-27T07:15:49.192Z,102026.88
2023-04-27T07:17:21.809Z,102027.03
2023-04-27T07:18:53.910Z,102033.16
2023-04-27T07:20:27.101Z,102023.78
2023-04-27T07:21:58.903Z,102035.97
2023-04-27T07:23:30.821Z,102023.78
2023-04-27T07:25:02.786Z,102025.72
2023-04-27T07:26:35.156Z,102029.34
2023-04-27T07:28:07.181Z,102019.88
2023-04-27T07:29:39.709Z,102021.75
2023-04-27T07:31:11.801Z,102012.41
2023-04-27T07:32:44.066Z,102017.91
2023-04-27T07:34:16.087Z,102024.13
2023-04-27T07:35:50.336Z,102009.50
2023-04-27T07:37:23.207Z,102025.41
2023-04-27T07:38:55.939Z,102010.75
2023-04-27T07:40:28.513Z,102015.28
2023-04-27T07:42:00.457Z,101999.69
2023-04-27T07:43:32.762Z,102013.03
2023-04-27T07:45:05.197Z,102006.91
2023-04-27T07:46:38.739Z,102010.34
2023-04-27T07:48:10.756Z,102003.50
2023-04-27T07:49:45.774Z,102015.00
2023-04-27T07:51:18.038Z,102011.75
2023-04-27T07:52:50.173Z,102010.16
2023-04-27T07:54:22.346Z,102011.94
2023-04-27T07:55:54.313Z,101997.16
2023-04-27T07:57:26.411Z,102004.09
2023-04-27T07:58:58.466Z,101998.16
2023-04-27T08:00:30.464Z,102004.34
2023-04-27T08:02:17.028Z,101999.19
2023-04-27T08:03:51.053Z,102002.72
2023-04-27T08:05:24.246Z,102001.88
2023-04-27T08:06:56.962Z,101998.59
2023-04-27T08:08:29.835Z,101999.59
2023-04-27T08:10:01.756Z,101991.09
2023-04-27T08:11:33.777Z,101997.44
2023-04-27T08:13:06.514Z,101986.84
2023-04-27T08:14:38.481Z,101991.41
2023-04-27T08:16:10.486Z,101983.69
2023-04-27T08:17:43.896Z,101984.66
2023-04-27T08:19:16.427Z,101979.53
2023-04-27T08:20:48.413Z,101982.28
2023-04-27T08:22:20.356Z,101983.25
2023-04-27T08:23:52.259Z,101992.16
2023-04-27T08:25:24.151Z,101980.84
2023-04-27T08:26:56.187Z,101988.63
2023-04-27T08:28:28.079Z,101985.09
2023-04-27T08:30:01.235Z,101989.31
2023-04-27T08:31:33.246Z,101983.31
2023-04-27T08:33:05.144Z,101977.34
2023-04-27T08:34:37.100Z,101975.72
2023-04-27T08:36:09.345Z,101975.91
2023-04-27T08:37:41.227Z,101983.88
2023-04-27T08:39:13.449Z,101985.63
2023-04-27T08:40:45.718Z,101989.03
2023-04-27T08:42:17.587Z,101986.28
2023-04-27T08:43:50.671Z,101985.53
2023-04-27T08:45:24.447Z,101980.28
2023-04-27T08:46:56.416Z,101977.75
2023-04-27T08:48:29.149Z,101980.44
2023-04-27T08:50:01.232Z,101969.25
2023-04-27T08:51:33.655Z,101969.31
2023-04-27T08:53:05.697Z,101965.06
2023-04-27T08:54:37.756Z,101967.81
2023-04-27T08:56:09.752Z,101960.00
2023-04-27T08:57:41.984Z,101956.63
2023-04-27T08:59:18.034Z,101947.91
2023-04-27T09:00:52.692Z,101945.28
2023-04-27T09:02:26.401Z,101957.53
2023-04-27T09:04:00.707Z,101941.84
2023-04-27T09:05:33.113Z,101947.13
2023-04-27T09:07:17.766Z,101945.47
2023-04-27T09:08:51.295Z,101935.88
2023-04-27T09:10:23.602Z,101950.75
2023-04-27T09:11:55.487Z,101953.31
2023-04-27T09:13:35.876Z,101944.56
2023-04-27T09:15:08.838Z,101941.94
2023-04-27T09:16:40.879Z,101940.28
2023-04-27T09:18:20.357Z,101942.88
2023-04-27T09:19:52.285Z,101947.19
2023-04-27T09:21:29.077Z,101938.50
2023-04-27T09:23:01.036Z,101944.69
2023-04-27T09:24:32.957Z,101932.44
2023-04-27T09:26:08.389Z,101943.81
2023-04-27T09:27:40.372Z,101942.94
2023-04-27T09:29:12.807Z,101942.94
2023-04-27T09:30:52.619Z,101943.78
2023-04-27T09:32:24.651Z,101930.63
2023-04-27T09:33:56.897Z,101933.22
2023-04-27T09:35:31.906Z,101937.66
2023-04-27T09:37:03.873Z,101936.78
2023-04-27T09:38:36.253Z,101937.63
2023-04-27T09:40:08.827Z,101930.63
2023-04-27T09:41:41.959Z,101935.03
2023-04-27T09:43:14.628Z,101928.88
2023-04-27T09:44:46.576Z,101930.66
2023-04-27T09:46:18.914Z,101927.13
2023-04-27T09:47:51.193Z,101930.66
2023-04-27T09:49:23.976Z,101929.78
2023-04-27T09:50:55.982Z,101932.41
2023-04-27T09:52:28.100Z,101925.41
2023-04-27T09:54:01.443Z,101931.47
2023-04-27T09:55:40.062Z,101920.91
2023-04-27T09:57:36.648Z,101928.78
2023-04-27T09:59:34.093Z,101908.38
2023-04-27T10:01:27.480Z,101913.56
2023-04-27T10:03:08.703Z,101902.09
2023-04-27T10:04:57.938Z,101903.84
2023-04-27T10:06:58.052Z,101906.34
2023-04-27T10:08:30.147Z,101894.97
2023-04-27T10:10:03.462Z,101894.19
2023-04-27T10:11:43.855Z,101903.69
2023-04-27T10:13:26.570Z,101898.47
2023-04-27T10:15:00.290Z,101886.91
2023-04-27T10:16:41.165Z,101900.84
2023-04-27T10:18:13.538Z,101892.75
2023-04-27T10:19:59.069Z,101888.38
2023-04-27T10:21:31.400Z,101890.88
2023-04-27T10:23:04.012Z,101890.88
2023-04-27T10:24:46.690Z,101885.75
2023-04-27T10:26:26.409Z,101889.28
2023-04-27T10:28:00.204Z,101882.22
2023-04-27T10:29:43.766Z,101885.53
2023-04-27T10:31:15.846Z,101883.84
2023-04-27T10:32:52.151Z,101889.84
2023-04-27T10:34:24.186Z,101889.81
2023-04-27T10:35:57.999Z,101886.31
2023-04-27T10:37:43.301Z,101884.63
2023-04-27T10:39:20.349Z,101877.59
2023-04-27T10:41:02.774Z,101880.28
2023-04-27T10:42:34.721Z,101878.59
2023-04-27T10:44:39.319Z,101882.72
2023-04-27T10:46:13.919Z,101878.16
2023-04-27T10:47:46.257Z,101879.72
2023-04-27T10:49:18.374Z,101876.34
2023-04-27T10:50:53.251Z,101893.22
2023-04-27T10:52:26.967Z,101896.31
2023-04-27T10:53:59.000Z,101887.72
2023-04-27T10:55:31.812Z,101891.25
2023-04-27T10:57:10.203Z,101892.00
2023-04-27T10:58:48.737Z,101889.19
2023-04-27T11:00:30.508Z,101892.53
2023-04-27T11:02:02.785Z,101885.50
2023-04-27T11:03:35.600Z,101887.28
2023-04-27T11:05:18.152Z,101883.75
2023-04-27T11:06:50.607Z,101878.34
2023-04-27T11:08:22.553Z,101887.84
2023-04-27T11:09:55.029Z,101874.91
2023-04-27T11:11:27.024Z,101880.06
2023-04-27T11:12:59.322Z,101873.88
2023-04-27T11:14:32.169Z,101876.47
2023-04-27T11:16:05.061Z,101874.69
2023-04-27T11:17:37.134Z,101869.41
2023-04-27T11:19:09.267Z,101864.88
2023-04-27T11:20:41.294Z,101872.88
2023-04-27T11:22:18.352Z,101862.22
2023-04-27T11:23:50.302Z,101869.97
2023-04-27T11:25:28.844Z,101858.63
2023-04-27T11:27:00.894Z,101848.16
2023-04-27T11:28:32.865Z,101849.91
2023-04-27T11:30:05.891Z,101851.72
2023-04-27T11:31:47.838Z,101841.94
2023-04-27T11:33:19.884Z,101839.13
2023-04-27T11:34:54.408Z,101841.72
2023-04-27T11:36:28.178Z,101852.25
2023-04-27T11:38:00.312Z,101847.84
2023-04-27T11:39:39.707Z,101843.13
2023-04-27T11:41:11.803Z,101847.72
2023-04-27T11:42:47.282Z,101840.53
2023-04-27T11:44:19.320Z,101839.53
2023-04-27T11:45:51.993Z,101843.56
2023-04-27T11:47:28.304Z,101839.00
2023-04-27T11:49:04.993Z,101834.63
2023-04-27T11:50:36.902Z,101840.34
2023-04-27T11:52:09.141Z,101830.66
2023-04-27T11:53:42.725Z,101842.75
2023-04-27T11:55:16.478Z,101834.69
2023-04-27T11:56:48.574Z,101825.97
2023-04-27T11:58:21.502Z,101824.81
2023-04-27T11:59:54.018Z,101822.22
2023-04-27T12:01:36.876Z,101814.94
2023-04-27T12:03:10.147Z,101815.81
2023-04-27T12:04:42.719Z,101817.75
2023-04-27T12:06:31.625Z,101821.09
2023-04-27T12:08:05.038Z,101816.44
2023-04-27T12:09:36.984Z,101812.94
2023-04-27T12:11:09.080Z,101816.56
2023-04-27T12:12:41.408Z,101818.47
2023-04-27T12:14:13.663Z,101819.16
2023-04-27T12:15:46.115Z,101817.41
2023-04-27T12:17:19.078Z,101819.06
2023-04-27T12:18:51.499Z,101817.22
2023-04-27T12:20:23.464Z,101821.81
2023-04-27T12:21:55.693Z,101807.69
2023-04-27T12:23:27.630Z,101814.66
2023-04-27T12:24:59.663Z,101806.63
2023-04-27T12:26:31.617Z,101811.91
2023-04-27T12:28:03.675Z,101808.34
2023-04-27T12:29:35.782Z,101803.91
2023-04-27T12:31:08.796Z,101807.81
2023-04-27T12:32:41.592Z,101813.69
2023-04-27T12:34:13.705Z,101810.25
2023-04-27T12:35:46.028Z,101799.81
2023-04-27T12:37:18.049Z,101805.03
2023-04-27T12:38:50.061Z,101800.50
2023-04-27T12:40:23.563Z,101805.72
2023-04-27T12:41:55.800Z,101799.94
2023-04-27T12:43:28.157Z,101804.25
2023-04-27T12:45:00.208Z,101802.41
2023-04-27T12:46:32.569Z,101797.09
2023-04-27T12:48:04.908Z,101797.31
2023-04-27T12:49:37.092Z,101793.63
2023-04-27T12:51:09.215Z,101791.97
2023-04-27T12:52:41.179Z,101789.94
2023-04-27T12:54:13.371Z,101789.81
2023-04-27T12:55:47.212Z,101787.78
2023-04-27T12:57:19.442Z,101782.47
2023-04-27T12:58:51.524Z,101789.88
2023-04-27T13:00:23.750Z,101785.84
2023-04-27T13:01:56.015Z,101781.00
2023-04-27T13:03:28.306Z,101789.03
2023-04-27T13:05:00.613Z,101797.53
2023-04-27T13:06:32.835Z,101788.44
2023-04-27T13:08:05.933Z,101780.34
2023-04-27T13:09:38.213Z,101794.38
2023-04-27T13:11:10.286Z,101787.31
2023-04-27T13:12:42.348Z,101778.34
2023-04-27T13:14:14.578Z,101780.75
2023-04-27T13:15:46.915Z,101776.97
2023-04-27T13:17:18.908Z,101782.25
2023-04-27T13:18:52.546Z,101777.69
2023-04-27T13:20:24.541Z,101781.41
2023-04-27T13:21:56.834Z,101772.50
2023-04-27T13:23:28.858Z,101770.53
2023-04-27T13:25:01.676Z,101776.25
2023-04-27T13:26:34.314Z,101764.56
2023-04-27T13:28:06.413Z,101760.97
2023-04-27T13:29:38.702Z,101769.59
2023-04-27T13:31:11.216Z,101768.34
2023-04-27T13:32:43.398Z,101762.31
2023-04-27T13:34:15.853Z,101767.91
2023-04-27T13:35:48.363Z,101772.50
2023-04-27T13:37:20.316Z,101761.09
2023-04-27T13:38:52.386Z,101760.09
2023-04-27T13:40:24.470Z,101755.19
2023-04-27T13:41:56.798Z,101750.97
2023-04-27T13:43:29.009Z,101759.63
2023-04-27T13:45:01.268Z,101750.69
2023-04-27T13:46:33.601Z,101754.06
2023-04-27T13:48:06.495Z,101742.00
2023-04-27T13:49:38.724Z,101740.97
2023-04-27T13:51:10.814Z,101741.25
2023-04-27T13:52:43.185Z,101737.72
2023-04-27T13:54:15.408Z,101737.13
2023-04-27T13:55:47.883Z,101737.50
2023-04-27T13:57:19.887Z,101730.31
2023-04-27T13:58:52.066Z,101733.78
2023-04-27T14:00:24.070Z,101732.97
2023-04-27T14:01:56.099Z,101727.75
2023-04-27T14:03:28.260Z,101724.19
2023-04-27T14:05:00.972Z,101727.63
2023-04-27T14:06:33.322Z,101718.47
2023-04-27T14:08:05.980Z,101729.97
2023-04-27T14:09:38.090Z,101739.38
2023-04-27T14:11:12.808Z,101725.09
2023-04-27T14:12:45.117Z,101724.44
2023-04-27T14:14:17.145Z,101723.22
2023-04-27T14:15:49.189Z,101715.91
2023-04-27T14:17:21.408Z,101714.97
2023-04-27T14:18:53.619Z,101705.13
2023-04-27T14:20:27.513Z,101702.63
2023-04-27T14:22:00.652Z,101705.25
2023-04-27T14:23:32.807Z,101700.84
2023-04-27T14:25:05.236Z,101693.94
2023-04-27T14:26:37.152Z,101688.72
2023-04-27T14:28:10.911Z,101694.69
2023-04-27T14:29:42.827Z,101695.78
2023-04-27T14:31:14.823Z,101693.56
2023-04-27T14:32:46.946Z,101688.22
2023-04-27T14:34:21.018Z,101691.66
2023-04-27T14:35:54.639Z,101683.66
2023-04-27T14:37:26.707Z,101681.94
2023-04-27T14:38:58.687Z,101687.38
2023-04-27T14:40:31.565Z,101676.66
2023-04-27T14:42:04.440Z,101676.81
2023-04-27T14:43:36.309Z,101680.31
2023-04-27T14:45:09.155Z,101679.63
2023-04-27T14:46:41.099Z,101681.38
2023-04-27T14:48:13.310Z,101692.19
2023-04-27T14:49:45.372Z,101682.75
2023-04-27T14:51:17.504Z,101676.53
2023-04-27T14:52:49.532Z,101668.69
2023-04-27T14:54:21.650Z,101654.59
2023-04-27T14:55:53.703Z,101664.13
2023-04-27T14:57:25.922Z,101650.19
2023-04-27T14:58:57.933Z,101657.88
2023-04-27T15:00:30.033Z,101659.69
2023-04-27T15:02:02.242Z,101650.06
2023-04-27T15:03:34.696Z,101649.31
2023-04-27T15:05:07.645Z,101659.22
2023-04-27T15:06:39.677Z,101649.69
2023-04-27T15:08:12.075Z,101649.47
2023-04-27T15:09:44.006Z,101637.25
2023-04-27T15:11:16.148Z,101640.53
2023-04-27T15:12:48.238Z,101637.72
2023-04-27T15:14:20.199Z,101636.59
2023-04-27T15:15:58.992Z,101638.25
2023-04-27T15:17:31.120Z,101627.06
2023-04-27T15:19:03.674Z,101635.81
2023-04-27T15:20:36.052Z,101630.41
2023-04-27T15:22:08.349Z,101642.19
2023-04-27T15:23:40.387Z,101632.91
2023-04-27T15:25:12.736Z,101636.41
2023-04-27T15:26:47.099Z,101631.84
2023-04-27T15:28:19.475Z,101631.88
2023-04-27T15:29:53.779Z,101633.50
2023-04-27T15:31:26.385Z,101636.06
2023-04-27T15:32:58.426Z,101635.19
2023-04-27T15:34:31.316Z,101638.00
2023-04-27T15:36:03.441Z,101635.19
2023-04-27T15:42:10.226Z,101646.47
2023-04-27T15:43:42.632Z,101645.56
2023-04-27T15:45:14.710Z,101646.69
2023-04-27T15:46:46.804Z,101638.97
2023-04-27T15:48:19.136Z,101642.34
2023-04-27T15:49:57.563Z,101635.28
2023-04-27T15:51:30.315Z,101628.16
2023-04-27T15:53:02.359Z,101622.75
2023-04-27T15:54:34.434Z,101626.28
2023-04-27T15:56:07.089Z,101620.09
2023-04-27T15:57:39.453Z,101620.31
2023-04-27T15:59:12.453Z,101617.66
2023-04-27T16:00:44.745Z,101624.81
2023-04-27T16:02:16.895Z,101626.75
2023-04-27T16:03:49.184Z,101626.81
2023-04-27T16:05:21.294Z,101625.06
2023-04-27T16:06:53.402Z,101615.38
2023-04-27T16:08:27.152Z,101617.31
2023-04-27T16:10:00.160Z,101616.56
2023-04-27T16:11:32.462Z,101601.72
2023-04-27T16:13:04.594Z,101603.38
2023-04-27T16:14:36.555Z,101608.59
2023-04-27T16:16:08.825Z,101607.69
2023-04-27T16:17:41.237Z,101608.59
2023-04-27T16:19:13.878Z,101603.16
2023-04-27T16:20:46.227Z,101606.50
2023-04-27T16:22:18.333Z,101602.94
2023-04-27T16:23:50.492Z,101608.19
2023-04-27T16:25:22.607Z,101599.50
2023-04-27T16:26:54.660Z,101596.88
2023-04-27T16:28:26.686Z,101597.88
2023-04-27T16:29:58.583Z,101592.56
2023-04-27T16:31:30.756Z,101596.25
2023-04-27T16:33:05.929Z,101588.34
2023-04-27T16:34:38.501Z,101586.69
2023-04-27T16:36:10.864Z,101578.97
2023-04-27T16:37:42.829Z,101583.41
2023-04-27T16:39:14.983Z,101580.72
2023-04-27T16:40:47.262Z,101578.88
2023-04-27T16:42:20.697Z,101579.94
2023-04-27T16:43:52.745Z,101576.38
2023-04-27T16:45:24.753Z,101573.78
2023-04-27T16:46:57.139Z,101574.75
2023-04-27T16:48:29.806Z,101569.59
2023-04-27T16:50:01.843Z,101566.13
2023-04-27T16:51:34.153Z,101562.63
2023-04-27T16:53:07.541Z,101562.78
2023-04-27T16:54:39.642Z,101566.31
2023-04-27T16:56:13.755Z,101561.03
2023-04-27T16:57:47.912Z,101557.50
2023-04-27T16:59:19.942Z,101549.59
2023-04-27T17:00:52.201Z,101551.25
2023-04-27T17:02:25.575Z,101549.53
2023-04-27T17:03:59.199Z,101547.78
2023-04-27T17:05:32.686Z,101547.81
2023-04-27T17:07:04.700Z,101546.09
2023-04-27T17:08:36.716Z,101550.50
2023-04-27T17:10:09.659Z,101547.13
2023-04-27T17:11:42.047Z,101548.09
2023-04-27T17:13:16.009Z,101547.28
2023-04-27T17:14:48.112Z,101549.03
2023-04-27T17:16:22.000Z,101548.19
2023-04-27T17:17:54.123Z,101549.91
2023-04-27T17:19:28.281Z,101543.72
2023-04-27T17:21:01.070Z,101540.28
2023-04-27T17:22:33.424Z,101546.44
2023-04-27T17:24:06.296Z,101542.16
2023-04-27T17:25:38.536Z,101537.66
2023-04-27T17:27:11.395Z,101535.84
2023-04-27T17:28:43.495Z,101535.75
2023-04-27T17:30:15.966Z,101531.38
2023-04-27T17:31:48.388Z,101533.19
2023-04-27T17:33:20.790Z,101534.19
2023-04-27T17:34:53.110Z,101529.06
2023-04-27T17:36:25.169Z,101530.00
2023-04-27T17:37:57.336Z,101529.13
2023-04-27T17:39:29.323Z,101521.25
2023-04-27T17:41:01.476Z,101522.03
2023-04-27T17:42:33.613Z,101519.38
2023-04-27T17:44:06.123Z,101524.63
2023-04-27T17:45:38.685Z,101519.47
2023-04-27T17:47:10.780Z,101513.31
2023-04-27T17:48:44.371Z,101521.25